CheckWX is a tool to help pilots better visualize weather data.  It is not intended as a substitute for an official pre-flight weather briefing.

08:04:35 UTC

KAPF TAF
Naples Municipal Airport
Naples, Florida, USA
KAPF 190541Z 1906/2006 03012G22KT P6SM -SHRA SCT008 BKN015 OVC025 FM191000 04012G22KT P6SM SHRA SCT010 OVC025 FM192100 05012KT P6SM VCSH SCT020 BKN035 OVC050 FM200500 03008KT P6SM SCT020 BKN050 OVC100

Mar-19@
06:00 UTC

Mar-19 @ 06:00 UTC

Mar-19@
10:00 UTC

Mar-19 @ 10:00 UTC

KAPF 190541Z 1906/2006 03012G22KT P6SM -SHRA SCT008 BKN015 OVC025
Wind
  • 030° at 12 KTS
  • {Gusting to 22 KTS
Conditions
Light Rain
Cloud Levels
  • Scattered at 800' AGL
  • Broken at 1,500' AGL
  • Overcast at 2,500' AGL

Mar-19@
10:00 UTC

Mar-19 @ 10:00 UTC

Mar-19@
21:00 UTC

Mar-19 @ 21:00 UTC

FM191000 04012G22KT P6SM SHRA SCT010 OVC025

From

From Standard forecast or significant change

Wind
  • 040° at 12 KTS
  • {Gusting to 22 KTS
Conditions
Rain
Cloud Levels
  • Scattered at 1,000' AGL
  • Overcast at 2,500' AGL

Mar-19@
21:00 UTC

Mar-19 @ 21:00 UTC

Mar-20@
05:00 UTC

Mar-20 @ 05:00 UTC

FM192100 05012KT P6SM VCSH SCT020 BKN035 OVC050

From

From Standard forecast or significant change

Wind
  • 050° at 12 KTS
Cloud Levels
  • Scattered at 2,000' AGL
  • Broken at 3,500' AGL
  • Overcast at 5,000' AGL

Mar-20@
05:00 UTC

Mar-20 @ 05:00 UTC

Mar-20@
06:00 UTC

Mar-20 @ 06:00 UTC

FM200500 03008KT P6SM SCT020 BKN050 OVC100

From

From Standard forecast or significant change

Wind
  • 030° at 8 KTS
Cloud Levels
  • Scattered at 2,000' AGL
  • Broken at 5,000' AGL
  • Overcast at 10,000' AGL